Vejen, Denmark
Current Conditions -  °F | °C
As of 12:50 AM on Sunday 23 Nov 2014 (Local Time) from EKVD Reporting Station
NA  
Wind Chill: 39°   Ceiling: NA
Heat Index: 45°   Visibility: NA
Dew Point: 41°   Wind: 10mph
Humidity: 87%   Direction: 140°SE
Pressure: 30.12"   Gusts: NA
Location:  55.48°N, 9.15°E
Report Text: EKVD 222350Z AUTO 14009KT //// ///////// 07/05 Q1020
Loading
Personal Weather Stations






























Interactive Weather Map New forecast layout! Learn more

10-Day Weather Forecast

Advertisements
Track Severe Weather on mobile